MAS711 WMKK-WIII
Flight info
| Callsign | MAS711 |
|---|---|
| Flight time | 1h 41m |
| Altitude | 41000 |
| Route | MITOS1D MITOS M630 BOBAG P501 ANITO B470 BUNIK |
| Aircraft | A359/H-SDE2E3GHIJ3J4J5LM1ORWXY/LB1D1 |
Departure
| Time | 2026-05-06 13:34 |
|---|---|
| Airport | Kuala Lumpur International Airport (WMKK) |
Arrival
| Time | 2026-05-06 15:16 |
|---|---|
| Airport | Soekarno-Hatta International Airport (WIII) |
| Time | Latitude | Longitude | Altitude | Speed | Heading |
|---|---|---|---|---|---|
| 2026-05-06 12:47 | 2.75070 | 101.71260 | 83 ft | 0 kts | 236° |
| 2026-05-06 13:20 | 2.75072 | 101.71263 | 78 ft | 3 kts | 236° |
| 2026-05-06 13:20 | 2.75087 | 101.71285 | 73 ft | 4 kts | 236° |
| 2026-05-06 13:20 | 2.75100 | 101.71304 | 86 ft | 2 kts | 236° |
| 2026-05-06 13:21 | 2.75112 | 101.71323 | 85 ft | 4 kts | 230° |
| 2026-05-06 13:21 | 2.75120 | 101.71333 | 85 ft | 4 kts | 179° |
| 2026-05-06 13:21 | 2.75119 | 101.71337 | 85 ft | 4 kts | 141° |
| 2026-05-06 13:21 | 2.75142 | 101.71312 | 85 ft | 4 kts | 135° |
| 2026-05-06 13:22 | 2.75157 | 101.71300 | 85 ft | 0 kts | 146° |
| 2026-05-06 13:27 | 2.75152 | 101.71303 | 79 ft | 3 kts | 146° |
| 2026-05-06 13:27 | 2.75114 | 101.71328 | 84 ft | 10 kts | 146° |
| 2026-05-06 13:27 | 2.75067 | 101.71360 | 84 ft | 7 kts | 146° |
| 2026-05-06 13:28 | 2.75026 | 101.71402 | 83 ft | 10 kts | 108° |
| 2026-05-06 13:28 | 2.75051 | 101.71468 | 83 ft | 6 kts | 57° |
| 2026-05-06 13:28 | 2.75085 | 101.71520 | 84 ft | 12 kts | 57° |
| 2026-05-06 13:28 | 2.75140 | 101.71602 | 84 ft | 13 kts | 56° |
| 2026-05-06 13:29 | 2.75148 | 101.71614 | 84 ft | 4 kts | 56° |
| 2026-05-06 13:29 | 2.75146 | 101.71646 | 83 ft | 6 kts | 118° |
| 2026-05-06 13:29 | 2.75100 | 101.71686 | 85 ft | 12 kts | 144° |
| 2026-05-06 13:29 | 2.75042 | 101.71726 | 84 ft | 5 kts | 146° |
| 2026-05-06 13:30 | 2.74996 | 101.71756 | 82 ft | 11 kts | 146° |
| 2026-05-06 13:30 | 2.74921 | 101.71807 | 86 ft | 15 kts | 146° |
| 2026-05-06 13:30 | 2.74821 | 101.71875 | 87 ft | 20 kts | 146° |
| 2026-05-06 13:30 | 2.74716 | 101.71946 | 86 ft | 11 kts | 146° |
| 2026-05-06 13:31 | 2.74646 | 101.71992 | 86 ft | 12 kts | 146° |
| 2026-05-06 13:31 | 2.74621 | 101.72016 | 89 ft | 4 kts | 118° |
| 2026-05-06 13:31 | 2.74622 | 101.72035 | 89 ft | 2 kts | 79° |
| 2026-05-06 13:31 | 2.74630 | 101.72054 | 90 ft | 6 kts | 64° |
| 2026-05-06 13:32 | 2.74659 | 101.72099 | 90 ft | 8 kts | 56° |
| 2026-05-06 13:32 | 2.74679 | 101.72128 | 90 ft | 2 kts | 56° |
| 2026-05-06 13:32 | 2.74696 | 101.72153 | 88 ft | 0 kts | 56° |
| 2026-05-06 13:32 | 2.74709 | 101.72172 | 89 ft | 7 kts | 56° |
| 2026-05-06 13:33 | 2.74745 | 101.72224 | 90 ft | 11 kts | 50° |
| 2026-05-06 13:33 | 2.74800 | 101.72234 | 87 ft | 9 kts | 335° |
| 2026-05-06 13:33 | 2.74829 | 101.72213 | 89 ft | 1 kts | 325° |
| 2026-05-06 13:33 | 2.74999 | 101.72098 | 85 ft | 70 kts | 326° |
| 2026-05-06 13:34 | 2.75618 | 101.71684 | 86 ft | 142 kts | 326° |
| 2026-05-06 13:34 | 2.76573 | 101.71027 | 390 ft | 175 kts | 325° |
| 2026-05-06 13:34 | 2.77550 | 101.70349 | 1265 ft | 170 kts | 326° |
| 2026-05-06 13:34 | 2.78613 | 101.69644 | 1757 ft | 198 kts | 327° |
| 2026-05-06 13:35 | 2.79893 | 101.68940 | 2098 ft | 224 kts | 337° |
| 2026-05-06 13:35 | 2.81414 | 101.68362 | 2552 ft | 248 kts | 341° |
| 2026-05-06 13:35 | 2.83108 | 101.67765 | 3152 ft | 264 kts | 341° |
| 2026-05-06 13:35 | 2.84861 | 101.67147 | 4020 ft | 268 kts | 341° |
| 2026-05-06 13:36 | 2.86635 | 101.66514 | 4927 ft | 271 kts | 341° |
| 2026-05-06 13:36 | 2.88454 | 101.65970 | 5786 ft | 275 kts | 351° |
| 2026-05-06 13:36 | 2.90368 | 101.66047 | 6621 ft | 279 kts | 16° |
| 2026-05-06 13:36 | 2.92046 | 101.66961 | 7443 ft | 281 kts | 43° |
| 2026-05-06 13:37 | 2.93194 | 101.68536 | 8355 ft | 283 kts | 64° |
| 2026-05-06 13:37 | 2.94010 | 101.70342 | 9274 ft | 287 kts | 68° |
| 2026-05-06 13:37 | 2.94584 | 101.72265 | 10146 ft | 290 kts | 82° |
| 2026-05-06 13:37 | 2.94756 | 101.74344 | 10694 ft | 308 kts | 91° |
| 2026-05-06 13:38 | 2.94350 | 101.76482 | 11016 ft | 330 kts | 112° |
| 2026-05-06 13:38 | 2.92991 | 101.78365 | 11589 ft | 341 kts | 139° |
| 2026-05-06 13:38 | 2.90906 | 101.79531 | 12348 ft | 348 kts | 160° |
| 2026-05-06 13:38 | 2.88574 | 101.80242 | 13108 ft | 353 kts | 163° |
| 2026-05-06 13:39 | 2.86190 | 101.80937 | 13832 ft | 358 kts | 162° |
| 2026-05-06 13:39 | 2.83794 | 101.81673 | 14500 ft | 362 kts | 161° |
| 2026-05-06 13:39 | 2.81373 | 101.82445 | 15174 ft | 366 kts | 160° |
| 2026-05-06 13:39 | 2.78939 | 101.83236 | 15847 ft | 370 kts | 160° |
| 2026-05-06 13:40 | 2.76509 | 101.84034 | 16488 ft | 373 kts | 160° |
| 2026-05-06 13:40 | 2.74027 | 101.84854 | 17152 ft | 377 kts | 160° |
| 2026-05-06 13:40 | 2.71522 | 101.85684 | 17792 ft | 381 kts | 160° |
| 2026-05-06 13:40 | 2.68988 | 101.86526 | 18385 ft | 385 kts | 160° |
| 2026-05-06 13:41 | 2.66425 | 101.87377 | 18926 ft | 388 kts | 159° |
| 2026-05-06 13:41 | 2.63874 | 101.88225 | 19466 ft | 392 kts | 159° |
| 2026-05-06 13:41 | 2.61280 | 101.89087 | 20033 ft | 395 kts | 159° |
| 2026-05-06 13:41 | 2.58662 | 101.89957 | 20606 ft | 398 kts | 159° |
| 2026-05-06 13:42 | 2.56017 | 101.90836 | 21169 ft | 401 kts | 159° |
| 2026-05-06 13:42 | 2.53349 | 101.91723 | 21737 ft | 405 kts | 159° |
| 2026-05-06 13:42 | 2.50660 | 101.92617 | 22308 ft | 408 kts | 159° |
| 2026-05-06 13:42 | 2.47955 | 101.93515 | 22849 ft | 412 kts | 159° |
| 2026-05-06 13:43 | 2.45253 | 101.94413 | 23398 ft | 415 kts | 159° |
| 2026-05-06 13:43 | 2.42496 | 101.95330 | 23838 ft | 419 kts | 159° |
| 2026-05-06 13:43 | 2.39717 | 101.96253 | 24299 ft | 422 kts | 160° |
| 2026-05-06 13:43 | 2.36913 | 101.97185 | 24764 ft | 425 kts | 160° |
| 2026-05-06 13:44 | 2.34091 | 101.98122 | 25262 ft | 428 kts | 160° |
| 2026-05-06 13:44 | 2.31256 | 101.99064 | 25780 ft | 431 kts | 160° |
| 2026-05-06 13:44 | 2.28386 | 102.00018 | 26299 ft | 435 kts | 160° |
| 2026-05-06 13:44 | 2.25553 | 102.01002 | 26813 ft | 437 kts | 156° |
| 2026-05-06 13:45 | 2.22810 | 102.02352 | 27321 ft | 439 kts | 147° |
| 2026-05-06 13:45 | 2.18156 | 102.06325 | 28361 ft | 443 kts | 132° |
| 2026-05-06 13:45 | 2.16105 | 102.08588 | 28856 ft | 446 kts | 130° |
| 2026-05-06 13:46 | 2.14082 | 102.10962 | 29364 ft | 450 kts | 129° |
| 2026-05-06 13:46 | 2.12067 | 102.13374 | 29842 ft | 453 kts | 129° |
| 2026-05-06 13:46 | 2.10025 | 102.15812 | 30251 ft | 457 kts | 129° |
| 2026-05-06 13:46 | 2.07963 | 102.18250 | 30659 ft | 460 kts | 129° |
| 2026-05-06 13:47 | 2.05877 | 102.20689 | 31060 ft | 463 kts | 130° |
| 2026-05-06 13:47 | 2.03793 | 102.23108 | 31445 ft | 466 kts | 130° |
| 2026-05-06 13:47 | 2.01658 | 102.25576 | 31827 ft | 469 kts | 130° |
| 2026-05-06 13:47 | 1.99510 | 102.28052 | 32221 ft | 472 kts | 130° |
| 2026-05-06 13:48 | 1.97353 | 102.30538 | 32601 ft | 475 kts | 130° |
| 2026-05-06 13:48 | 1.95173 | 102.33050 | 32962 ft | 478 kts | 130° |
| 2026-05-06 13:48 | 1.92985 | 102.35574 | 33314 ft | 481 kts | 130° |
| 2026-05-06 13:48 | 1.90811 | 102.38082 | 33645 ft | 484 kts | 130° |
| 2026-05-06 13:49 | 1.88599 | 102.40634 | 33964 ft | 487 kts | 130° |
| 2026-05-06 13:49 | 1.86375 | 102.43201 | 34241 ft | 489 kts | 130° |
| 2026-05-06 13:49 | 1.84147 | 102.45772 | 34543 ft | 491 kts | 130° |
| 2026-05-06 13:49 | 1.81904 | 102.48361 | 34948 ft | 490 kts | 130° |
| 2026-05-06 13:50 | 1.79676 | 102.50931 | 35371 ft | 488 kts | 130° |
| 2026-05-06 13:50 | 1.77453 | 102.53496 | 35781 ft | 487 kts | 130° |
| 2026-05-06 13:50 | 1.75261 | 102.56024 | 36149 ft | 487 kts | 130° |
| 2026-05-06 13:50 | 1.73043 | 102.58584 | 36528 ft | 486 kts | 130° |
| 2026-05-06 13:51 | 1.70828 | 102.61140 | 36908 ft | 486 kts | 130° |
| 2026-05-06 13:51 | 1.68603 | 102.63707 | 37288 ft | 485 kts | 130° |
| 2026-05-06 13:51 | 1.66416 | 102.66230 | 37676 ft | 484 kts | 130° |
| 2026-05-06 13:51 | 1.64204 | 102.68782 | 38049 ft | 483 kts | 130° |
| 2026-05-06 13:52 | 1.62000 | 102.71325 | 38407 ft | 483 kts | 130° |
| 2026-05-06 13:52 | 1.59800 | 102.73863 | 38743 ft | 482 kts | 130° |
| 2026-05-06 13:52 | 1.57600 | 102.76401 | 39017 ft | 482 kts | 130° |
| 2026-05-06 13:52 | 1.55435 | 102.78898 | 39307 ft | 481 kts | 130° |
| 2026-05-06 13:53 | 1.53243 | 102.81427 | 39596 ft | 480 kts | 130° |
| 2026-05-06 13:53 | 1.51055 | 102.83950 | 39886 ft | 479 kts | 130° |
| 2026-05-06 13:53 | 1.48865 | 102.86476 | 40156 ft | 479 kts | 130° |
| 2026-05-06 13:53 | 1.46683 | 102.88992 | 40430 ft | 478 kts | 130° |
| 2026-05-06 13:54 | 1.44532 | 102.91473 | 40697 ft | 477 kts | 130° |
| 2026-05-06 13:54 | 1.42347 | 102.93994 | 40843 ft | 479 kts | 130° |
| 2026-05-06 13:54 | 1.38074 | 102.99182 | 40865 ft | 484 kts | 124° |
| 2026-05-06 13:55 | 1.34251 | 103.04738 | 40855 ft | 484 kts | 123° |
| 2026-05-06 13:55 | 1.30537 | 103.10309 | 40857 ft | 484 kts | 122° |
| 2026-05-06 13:56 | 1.26803 | 103.15929 | 40854 ft | 484 kts | 123° |
| 2026-05-06 13:56 | 1.23064 | 103.21539 | 40855 ft | 484 kts | 123° |
| 2026-05-06 13:57 | 1.19346 | 103.27106 | 40855 ft | 484 kts | 123° |
| 2026-05-06 13:57 | 1.15598 | 103.32715 | 40853 ft | 485 kts | 123° |
| 2026-05-06 13:58 | 1.11863 | 103.38304 | 40852 ft | 485 kts | 123° |
| 2026-05-06 13:58 | 1.08113 | 103.43916 | 40854 ft | 485 kts | 123° |
| 2026-05-06 13:59 | 1.04270 | 103.49467 | 40859 ft | 486 kts | 128° |
| 2026-05-06 13:59 | 0.99748 | 103.54435 | 40857 ft | 486 kts | 132° |
| 2026-05-06 14:00 | 0.95039 | 103.59307 | 40863 ft | 486 kts | 133° |
| 2026-05-06 14:00 | 0.90315 | 103.64152 | 40862 ft | 486 kts | 133° |
| 2026-05-06 14:01 | 0.85622 | 103.68983 | 40864 ft | 486 kts | 133° |
| 2026-05-06 14:01 | 0.80895 | 103.73864 | 40865 ft | 486 kts | 133° |
| 2026-05-06 14:02 | 0.76210 | 103.78705 | 40868 ft | 486 kts | 133° |
| 2026-05-06 14:02 | 0.71504 | 103.83568 | 40870 ft | 486 kts | 133° |
| 2026-05-06 14:03 | 0.66787 | 103.88442 | 40873 ft | 486 kts | 133° |
| 2026-05-06 14:03 | 0.62103 | 103.93279 | 40873 ft | 486 kts | 133° |
| 2026-05-06 14:04 | 0.57388 | 103.98150 | 40874 ft | 486 kts | 133° |
| 2026-05-06 14:04 | 0.52685 | 104.03015 | 40875 ft | 486 kts | 133° |
| 2026-05-06 14:05 | 0.47980 | 104.07869 | 40879 ft | 486 kts | 133° |
| 2026-05-06 14:05 | 0.43294 | 104.12702 | 40878 ft | 486 kts | 133° |
| 2026-05-06 14:06 | 0.38610 | 104.17536 | 40882 ft | 486 kts | 133° |
| 2026-05-06 14:06 | 0.33900 | 104.22398 | 40882 ft | 486 kts | 133° |
| 2026-05-06 14:07 | 0.29184 | 104.27275 | 40881 ft | 486 kts | 133° |
| 2026-05-06 14:07 | 0.24504 | 104.32104 | 40883 ft | 486 kts | 133° |
| 2026-05-06 14:08 | 0.19793 | 104.36965 | 40883 ft | 486 kts | 133° |
| 2026-05-06 14:08 | 0.15118 | 104.41791 | 40887 ft | 486 kts | 133° |
| 2026-05-06 14:09 | 0.10412 | 104.46650 | 40889 ft | 486 kts | 133° |
| 2026-05-06 14:09 | 0.05707 | 104.51508 | 40890 ft | 486 kts | 132° |
| 2026-05-06 14:10 | 0.01020 | 104.56347 | 40893 ft | 486 kts | 132° |
| 2026-05-06 14:10 | -0.03690 | 104.61211 | 40891 ft | 486 kts | 133° |
| 2026-05-06 14:11 | -0.07599 | 104.65247 | 40892 ft | 485 kts | 133° |
| 2026-05-06 14:11 | -0.12269 | 104.70069 | 40890 ft | 485 kts | 133° |
| 2026-05-06 14:12 | -0.16973 | 104.74927 | 40892 ft | 485 kts | 133° |
| 2026-05-06 14:12 | -0.21668 | 104.79773 | 40893 ft | 485 kts | 133° |
| 2026-05-06 14:13 | -0.26335 | 104.84588 | 40888 ft | 485 kts | 133° |
| 2026-05-06 14:13 | -0.31575 | 104.88850 | 40892 ft | 486 kts | 143° |
| 2026-05-06 14:14 | -0.37160 | 104.92693 | 40892 ft | 487 kts | 144° |
| 2026-05-06 14:14 | -0.42794 | 104.96472 | 40889 ft | 487 kts | 144° |
| 2026-05-06 14:15 | -0.48428 | 105.00259 | 40890 ft | 487 kts | 144° |
| 2026-05-06 14:15 | -0.54010 | 105.04029 | 40889 ft | 487 kts | 144° |
| 2026-05-06 14:16 | -0.59636 | 105.07837 | 40887 ft | 487 kts | 144° |
| 2026-05-06 14:16 | -0.65264 | 105.11646 | 40889 ft | 487 kts | 144° |
| 2026-05-06 14:17 | -0.70860 | 105.15434 | 40892 ft | 488 kts | 144° |
| 2026-05-06 14:17 | -0.76485 | 105.19240 | 40891 ft | 488 kts | 144° |
| 2026-05-06 14:18 | -0.82076 | 105.23024 | 40893 ft | 488 kts | 144° |
| 2026-05-06 14:18 | -0.87704 | 105.26832 | 40891 ft | 488 kts | 144° |
| 2026-05-06 14:19 | -0.93310 | 105.30627 | 40887 ft | 488 kts | 144° |
| 2026-05-06 14:19 | -0.98936 | 105.34434 | 40889 ft | 488 kts | 144° |
| 2026-05-06 14:20 | -1.04565 | 105.38245 | 40892 ft | 488 kts | 144° |
| 2026-05-06 14:20 | -1.10199 | 105.42058 | 40888 ft | 488 kts | 144° |
| 2026-05-06 14:21 | -1.15802 | 105.45851 | 40894 ft | 488 kts | 144° |
| 2026-05-06 14:21 | -1.21427 | 105.49658 | 40893 ft | 488 kts | 144° |
| 2026-05-06 14:22 | -1.27014 | 105.53440 | 40890 ft | 488 kts | 144° |
| 2026-05-06 14:22 | -1.32652 | 105.57257 | 40891 ft | 488 kts | 145° |
| 2026-05-06 14:23 | -1.38259 | 105.61053 | 40896 ft | 487 kts | 145° |
| 2026-05-06 14:23 | -1.43880 | 105.64859 | 40891 ft | 487 kts | 145° |
| 2026-05-06 14:24 | -1.49470 | 105.68644 | 40893 ft | 487 kts | 145° |
| 2026-05-06 14:24 | -1.55090 | 105.72450 | 40894 ft | 487 kts | 145° |
| 2026-05-06 14:25 | -1.60672 | 105.76230 | 40893 ft | 487 kts | 145° |
| 2026-05-06 14:25 | -1.66305 | 105.80045 | 40895 ft | 487 kts | 145° |
| 2026-05-06 14:26 | -1.71929 | 105.83854 | 40894 ft | 487 kts | 145° |
| 2026-05-06 14:26 | -1.77517 | 105.87639 | 40890 ft | 487 kts | 145° |
| 2026-05-06 14:27 | -1.83136 | 105.91445 | 40898 ft | 487 kts | 145° |
| 2026-05-06 14:27 | -1.88714 | 105.95224 | 40898 ft | 487 kts | 145° |
| 2026-05-06 14:28 | -1.94330 | 105.99029 | 40895 ft | 487 kts | 145° |
| 2026-05-06 14:28 | -1.99951 | 106.02838 | 40896 ft | 487 kts | 145° |
| 2026-05-06 14:29 | -2.05521 | 106.06612 | 40894 ft | 487 kts | 145° |
| 2026-05-06 14:29 | -2.11143 | 106.10422 | 40892 ft | 487 kts | 145° |
| 2026-05-06 14:30 | -2.17057 | 106.13749 | 40892 ft | 488 kts | 158° |
| 2026-05-06 14:30 | -2.23225 | 106.15371 | 40893 ft | 490 kts | 168° |
| 2026-05-06 14:31 | -2.29947 | 106.16551 | 40895 ft | 491 kts | 170° |
| 2026-05-06 14:31 | -2.36678 | 106.17650 | 40895 ft | 491 kts | 170° |
| 2026-05-06 14:32 | -2.43443 | 106.18778 | 40897 ft | 492 kts | 169° |
| 2026-05-06 14:32 | -2.50210 | 106.19930 | 40892 ft | 492 kts | 169° |
| 2026-05-06 14:33 | -2.56934 | 106.21082 | 40896 ft | 492 kts | 169° |
| 2026-05-06 14:33 | -2.63707 | 106.22243 | 40895 ft | 493 kts | 169° |
| 2026-05-06 14:34 | -2.70438 | 106.23395 | 40893 ft | 493 kts | 169° |
| 2026-05-06 14:34 | -2.75750 | 106.24304 | 40893 ft | 493 kts | 169° |
| 2026-05-06 14:35 | -2.82490 | 106.25458 | 40891 ft | 493 kts | 169° |
| 2026-05-06 14:35 | -2.89277 | 106.26620 | 40888 ft | 494 kts | 169° |
| 2026-05-06 14:36 | -2.96057 | 106.27781 | 40888 ft | 494 kts | 169° |
| 2026-05-06 14:36 | -3.02806 | 106.28936 | 40888 ft | 494 kts | 169° |
| 2026-05-06 14:37 | -3.09591 | 106.30098 | 40892 ft | 494 kts | 169° |
| 2026-05-06 14:37 | -3.16345 | 106.31255 | 40891 ft | 495 kts | 169° |
| 2026-05-06 14:38 | -3.23144 | 106.32420 | 40894 ft | 495 kts | 169° |
| 2026-05-06 14:38 | -3.29957 | 106.33587 | 40891 ft | 496 kts | 169° |
| 2026-05-06 14:39 | -3.36731 | 106.34748 | 40887 ft | 496 kts | 169° |
| 2026-05-06 14:39 | -3.43454 | 106.35900 | 40894 ft | 496 kts | 169° |
| 2026-05-06 14:40 | -3.50115 | 106.37042 | 40893 ft | 497 kts | 170° |
| 2026-05-06 14:40 | -3.56955 | 106.38214 | 40893 ft | 497 kts | 170° |
| 2026-05-06 14:41 | -3.63779 | 106.39387 | 40894 ft | 497 kts | 169° |
| 2026-05-06 14:41 | -3.70561 | 106.40657 | 40897 ft | 497 kts | 169° |
| 2026-05-06 14:42 | -3.77382 | 106.41944 | 40896 ft | 497 kts | 169° |
| 2026-05-06 14:42 | -3.84166 | 106.43217 | 40893 ft | 498 kts | 169° |
| 2026-05-06 14:43 | -3.90688 | 106.44438 | 40898 ft | 498 kts | 169° |
| 2026-05-06 14:43 | -3.97509 | 106.45715 | 40898 ft | 498 kts | 169° |
| 2026-05-06 14:44 | -4.04285 | 106.46984 | 40897 ft | 498 kts | 169° |
| 2026-05-06 14:45 | -4.14477 | 106.48892 | 40895 ft | 498 kts | 169° |
| 2026-05-06 14:45 | -4.21291 | 106.50169 | 40893 ft | 498 kts | 169° |
| 2026-05-06 14:46 | -4.28097 | 106.51444 | 40893 ft | 498 kts | 169° |
| 2026-05-06 14:46 | -4.34926 | 106.52723 | 40891 ft | 498 kts | 169° |
| 2026-05-06 14:47 | -4.41749 | 106.54002 | 40811 ft | 498 kts | 169° |
| 2026-05-06 14:47 | -4.45147 | 106.54639 | 40358 ft | 496 kts | 169° |
| 2026-05-06 14:47 | -4.48557 | 106.55278 | 39599 ft | 498 kts | 169° |
| 2026-05-06 14:47 | -4.51933 | 106.55911 | 38866 ft | 501 kts | 169° |
| 2026-05-06 14:48 | -4.55367 | 106.56554 | 38116 ft | 502 kts | 169° |
| 2026-05-06 14:48 | -4.58817 | 106.57200 | 37309 ft | 503 kts | 169° |
| 2026-05-06 14:48 | -4.62272 | 106.57847 | 36508 ft | 504 kts | 168° |
| 2026-05-06 14:48 | -4.65722 | 106.58494 | 35761 ft | 504 kts | 168° |
| 2026-05-06 14:49 | -4.69132 | 106.59133 | 35050 ft | 504 kts | 168° |
| 2026-05-06 14:49 | -4.72586 | 106.59782 | 34309 ft | 503 kts | 168° |
| 2026-05-06 14:49 | -4.76041 | 106.60430 | 33430 ft | 506 kts | 168° |
| 2026-05-06 14:49 | -4.79490 | 106.61077 | 32817 ft | 501 kts | 168° |
| 2026-05-06 14:50 | -4.82901 | 106.61717 | 32258 ft | 496 kts | 168° |
| 2026-05-06 14:50 | -4.86247 | 106.62503 | 31642 ft | 490 kts | 160° |
| 2026-05-06 14:50 | -4.89368 | 106.63753 | 31021 ft | 486 kts | 154° |
| 2026-05-06 14:50 | -4.92452 | 106.65164 | 30438 ft | 483 kts | 154° |
| 2026-05-06 14:51 | -4.95493 | 106.66567 | 29866 ft | 479 kts | 154° |
| 2026-05-06 14:51 | -4.98520 | 106.67958 | 29251 ft | 475 kts | 154° |
| 2026-05-06 14:51 | -5.01500 | 106.69325 | 28686 ft | 469 kts | 154° |
| 2026-05-06 14:51 | -5.04425 | 106.70665 | 28148 ft | 464 kts | 154° |
| 2026-05-06 14:52 | -5.07350 | 106.72003 | 27601 ft | 459 kts | 154° |
| 2026-05-06 14:52 | -5.10240 | 106.73324 | 27261 ft | 450 kts | 154° |
| 2026-05-06 14:52 | -5.13045 | 106.74607 | 27139 ft | 436 kts | 154° |
| 2026-05-06 14:52 | -5.15795 | 106.75864 | 26615 ft | 432 kts | 154° |
| 2026-05-06 14:53 | -5.18530 | 106.77118 | 26044 ft | 431 kts | 154° |
| 2026-05-06 14:53 | -5.21219 | 106.78341 | 25534 ft | 429 kts | 154° |
| 2026-05-06 14:53 | -5.23958 | 106.79578 | 25035 ft | 425 kts | 154° |
| 2026-05-06 14:53 | -5.26621 | 106.80780 | 24543 ft | 422 kts | 154° |
| 2026-05-06 14:54 | -5.29296 | 106.81990 | 24052 ft | 419 kts | 154° |
| 2026-05-06 14:54 | -5.31954 | 106.83193 | 23573 ft | 416 kts | 154° |
| 2026-05-06 14:54 | -5.34586 | 106.84385 | 23024 ft | 413 kts | 154° |
| 2026-05-06 14:54 | -5.37176 | 106.85558 | 22467 ft | 410 kts | 154° |
| 2026-05-06 14:55 | -5.39760 | 106.86729 | 22064 ft | 403 kts | 154° |
| 2026-05-06 14:55 | -5.42290 | 106.87875 | 21822 ft | 392 kts | 154° |
| 2026-05-06 14:55 | -5.44773 | 106.88970 | 21482 ft | 385 kts | 157° |
| 2026-05-06 14:55 | -5.47371 | 106.89552 | 21065 ft | 383 kts | 177° |
| 2026-05-06 14:56 | -5.49969 | 106.89203 | 20636 ft | 382 kts | 196° |
| 2026-05-06 14:56 | -5.52470 | 106.88291 | 20142 ft | 381 kts | 200° |
| 2026-05-06 14:56 | -5.54885 | 106.87324 | 19471 ft | 367 kts | 200° |
| 2026-05-06 14:56 | -5.57257 | 106.86381 | 18912 ft | 366 kts | 200° |
| 2026-05-06 14:57 | -5.59603 | 106.85461 | 18421 ft | 364 kts | 200° |
| 2026-05-06 14:57 | -5.61956 | 106.84544 | 17897 ft | 361 kts | 199° |
| 2026-05-06 14:57 | -5.64297 | 106.83637 | 17418 ft | 358 kts | 199° |
| 2026-05-06 14:57 | -5.66615 | 106.82740 | 16945 ft | 355 kts | 199° |
| 2026-05-06 14:58 | -5.68925 | 106.81848 | 16548 ft | 356 kts | 199° |
| 2026-05-06 14:58 | -5.71202 | 106.80970 | 16148 ft | 353 kts | 199° |
| 2026-05-06 14:58 | -5.73497 | 106.80084 | 15658 ft | 351 kts | 199° |
| 2026-05-06 14:58 | -5.75772 | 106.79206 | 15178 ft | 349 kts | 199° |
| 2026-05-06 14:59 | -5.78032 | 106.78334 | 14747 ft | 346 kts | 199° |
| 2026-05-06 14:59 | -5.80281 | 106.77466 | 14293 ft | 344 kts | 199° |
| 2026-05-06 14:59 | -5.81751 | 106.76898 | 14002 ft | 342 kts | 199° |
| 2026-05-06 14:59 | -5.84679 | 106.75724 | 13374 ft | 340 kts | 203° |
| 2026-05-06 15:00 | -5.86601 | 106.74331 | 12828 ft | 343 kts | 226° |
| 2026-05-06 15:00 | -5.87506 | 106.72995 | 12501 ft | 343 kts | 242° |
| 2026-05-06 15:00 | -5.88427 | 106.70831 | 12128 ft | 339 kts | 248° |
| 2026-05-06 15:00 | -5.89272 | 106.68632 | 11825 ft | 334 kts | 248° |
| 2026-05-06 15:01 | -5.90118 | 106.66460 | 11461 ft | 333 kts | 247° |
| 2026-05-06 15:01 | -5.90969 | 106.64298 | 11073 ft | 332 kts | 247° |
| 2026-05-06 15:01 | -5.91820 | 106.62154 | 10684 ft | 330 kts | 247° |
| 2026-05-06 15:01 | -5.92656 | 106.60053 | 10372 ft | 325 kts | 247° |
| 2026-05-06 15:02 | -5.93481 | 106.57982 | 10194 ft | 313 kts | 247° |
| 2026-05-06 15:02 | -5.94291 | 106.55987 | 9978 ft | 303 kts | 246° |
| 2026-05-06 15:02 | -5.95074 | 106.54067 | 9579 ft | 293 kts | 247° |
| 2026-05-06 15:02 | -5.95853 | 106.52158 | 9299 ft | 295 kts | 247° |
| 2026-05-06 15:03 | -5.96630 | 106.50253 | 9080 ft | 293 kts | 247° |
| 2026-05-06 15:03 | -5.97392 | 106.48384 | 8854 ft | 292 kts | 247° |
| 2026-05-06 15:03 | -5.98164 | 106.46491 | 8661 ft | 291 kts | 247° |
| 2026-05-06 15:03 | -5.98933 | 106.44602 | 8443 ft | 290 kts | 247° |
| 2026-05-06 15:04 | -5.99700 | 106.42722 | 8238 ft | 289 kts | 247° |
| 2026-05-06 15:04 | -6.00460 | 106.40856 | 8032 ft | 289 kts | 247° |
| 2026-05-06 15:04 | -6.01210 | 106.39013 | 7829 ft | 287 kts | 247° |
| 2026-05-06 15:04 | -6.01953 | 106.37188 | 7694 ft | 276 kts | 247° |
| 2026-05-06 15:05 | -6.02666 | 106.35435 | 7579 ft | 266 kts | 247° |
| 2026-05-06 15:05 | -6.03368 | 106.33738 | 7385 ft | 259 kts | 245° |
| 2026-05-06 15:05 | -6.04395 | 106.32300 | 7146 ft | 250 kts | 216° |
| 2026-05-06 15:05 | -6.05936 | 106.31677 | 6888 ft | 240 kts | 180° |
| 2026-05-06 15:06 | -6.07573 | 106.31818 | 6665 ft | 235 kts | 167° |
| 2026-05-06 15:06 | -6.09187 | 106.32125 | 6446 ft | 236 kts | 166° |
| 2026-05-06 15:06 | -6.10809 | 106.32438 | 6227 ft | 236 kts | 166° |
| 2026-05-06 15:06 | -6.12403 | 106.32736 | 6031 ft | 235 kts | 167° |
| 2026-05-06 15:07 | -6.13988 | 106.33024 | 5911 ft | 226 kts | 167° |
| 2026-05-06 15:07 | -6.15516 | 106.33297 | 5756 ft | 219 kts | 167° |
| 2026-05-06 15:07 | -6.17007 | 106.33564 | 5518 ft | 216 kts | 167° |
| 2026-05-06 15:07 | -6.18459 | 106.33822 | 5318 ft | 213 kts | 167° |
| 2026-05-06 15:08 | -6.19892 | 106.34149 | 5115 ft | 209 kts | 157° |
| 2026-05-06 15:08 | -6.21032 | 106.34988 | 4946 ft | 202 kts | 126° |
| 2026-05-06 15:08 | -6.21814 | 106.36153 | 4787 ft | 201 kts | 120° |
| 2026-05-06 15:08 | -6.22541 | 106.37363 | 4656 ft | 201 kts | 120° |
| 2026-05-06 15:09 | -6.23256 | 106.38555 | 4489 ft | 201 kts | 119° |
| 2026-05-06 15:09 | -6.23612 | 106.39886 | 4382 ft | 198 kts | 87° |
| 2026-05-06 15:09 | -6.23373 | 106.41232 | 4245 ft | 196 kts | 73° |
| 2026-05-06 15:09 | -6.22912 | 106.42529 | 4081 ft | 198 kts | 69° |
| 2026-05-06 15:10 | -6.22401 | 106.43816 | 3938 ft | 198 kts | 69° |
| 2026-05-06 15:10 | -6.21895 | 106.45085 | 3809 ft | 196 kts | 69° |
| 2026-05-06 15:10 | -6.21404 | 106.46329 | 3638 ft | 187 kts | 69° |
| 2026-05-06 15:10 | -6.20936 | 106.47527 | 3415 ft | 181 kts | 69° |
| 2026-05-06 15:11 | -6.20473 | 106.48692 | 3174 ft | 176 kts | 69° |
| 2026-05-06 15:11 | -6.20032 | 106.49801 | 2940 ft | 164 kts | 69° |
| 2026-05-06 15:11 | -6.19624 | 106.50831 | 2725 ft | 153 kts | 69° |
| 2026-05-06 15:11 | -6.19244 | 106.51790 | 2551 ft | 148 kts | 69° |
| 2026-05-06 15:12 | -6.18874 | 106.52723 | 2359 ft | 139 kts | 69° |
| 2026-05-06 15:12 | -6.18527 | 106.53599 | 2190 ft | 132 kts | 69° |
| 2026-05-06 15:12 | -6.18188 | 106.54454 | 2006 ft | 131 kts | 69° |
| 2026-05-06 15:12 | -6.17850 | 106.55305 | 1835 ft | 132 kts | 69° |
| 2026-05-06 15:13 | -6.17511 | 106.56163 | 1667 ft | 132 kts | 68° |
| 2026-05-06 15:13 | -6.17172 | 106.57018 | 1501 ft | 132 kts | 69° |
| 2026-05-06 15:13 | -6.16831 | 106.57875 | 1335 ft | 132 kts | 69° |
| 2026-05-06 15:13 | -6.16491 | 106.58734 | 1155 ft | 132 kts | 69° |
| 2026-05-06 15:14 | -6.16151 | 106.59591 | 997 ft | 132 kts | 69° |
| 2026-05-06 15:14 | -6.15812 | 106.60447 | 842 ft | 132 kts | 70° |
| 2026-05-06 15:14 | -6.15478 | 106.61296 | 705 ft | 132 kts | 69° |
| 2026-05-06 15:14 | -6.15139 | 106.62154 | 465 ft | 130 kts | 68° |
| 2026-05-06 15:15 | -6.14795 | 106.63003 | 310 ft | 132 kts | 67° |
| 2026-05-06 15:15 | -6.14459 | 106.63853 | 180 ft | 131 kts | 68° |
| 2026-05-06 15:15 | -6.14119 | 106.64700 | 53 ft | 131 kts | 68° |
| 2026-05-06 15:15 | -6.13834 | 106.65417 | 46 ft | 75 kts | 68° |
| 2026-05-06 15:16 | -6.13698 | 106.65758 | 46 ft | 47 kts | 68° |
| 2026-05-06 15:16 | -6.13583 | 106.66044 | 43 ft | 34 kts | 68° |
| 2026-05-06 15:16 | -6.13525 | 106.66160 | 47 ft | 19 kts | 54° |
| 2026-05-06 15:16 | -6.13429 | 106.66261 | 47 ft | 15 kts | 39° |
| 2026-05-06 15:17 | -6.13368 | 106.66302 | 46 ft | 6 kts | 20° |
| 2026-05-06 15:17 | -6.13292 | 106.66317 | 45 ft | 15 kts | 40° |
| 2026-05-06 15:17 | -6.13238 | 106.66424 | 45 ft | 17 kts | 68° |
| 2026-05-06 15:17 | -6.13196 | 106.66531 | 43 ft | 16 kts | 68° |
| 2026-05-06 15:18 | -6.13151 | 106.66644 | 45 ft | 19 kts | 68° |
| 2026-05-06 15:18 | -6.13098 | 106.66777 | 45 ft | 22 kts | 68° |
| 2026-05-06 15:18 | -6.13038 | 106.66925 | 45 ft | 24 kts | 68° |
| 2026-05-06 15:18 | -6.12975 | 106.67081 | 45 ft | 16 kts | 68° |
| 2026-05-06 15:19 | -6.12930 | 106.67196 | 45 ft | 19 kts | 68° |
| 2026-05-06 15:19 | -6.12876 | 106.67330 | 45 ft | 22 kts | 68° |
| 2026-05-06 15:19 | -6.12813 | 106.67480 | 44 ft | 24 kts | 60° |
| 2026-05-06 15:19 | -6.12723 | 106.67632 | 44 ft | 26 kts | 59° |
| 2026-05-06 15:20 | -6.12616 | 106.67784 | 44 ft | 26 kts | 44° |
| 2026-05-06 15:20 | -6.12492 | 106.67852 | 44 ft | 20 kts | 17° |
| 2026-05-06 15:20 | -6.12349 | 106.67860 | 44 ft | 22 kts | 348° |
| 2026-05-06 15:20 | -6.12219 | 106.67814 | 49 ft | 15 kts | 338° |
| 2026-05-06 15:21 | -6.12124 | 106.67775 | 53 ft | 14 kts | 339° |
| 2026-05-06 15:21 | -6.12037 | 106.67741 | 55 ft | 13 kts | 339° |
| 2026-05-06 15:21 | -6.11954 | 106.67708 | 58 ft | 12 kts | 339° |
| 2026-05-06 15:21 | -6.11877 | 106.67677 | 62 ft | 12 kts | 338° |
| 2026-05-06 15:22 | -6.11800 | 106.67646 | 63 ft | 13 kts | 338° |
| 2026-05-06 15:22 | -6.11705 | 106.67609 | 59 ft | 17 kts | 338° |
| 2026-05-06 15:22 | -6.11543 | 106.67546 | 44 ft | 23 kts | 338° |
| 2026-05-06 15:22 | -6.11409 | 106.67491 | 44 ft | 20 kts | 338° |
| 2026-05-06 15:23 | -6.11272 | 106.67435 | 44 ft | 23 kts | 338° |
| 2026-05-06 15:23 | -6.11124 | 106.67372 | 44 ft | 22 kts | 328° |
| 2026-05-06 15:23 | -6.11094 | 106.67238 | 44 ft | 21 kts | 255° |
| 2026-05-06 15:23 | -6.11128 | 106.67095 | 44 ft | 21 kts | 257° |
| 2026-05-06 15:24 | -6.11172 | 106.66942 | 44 ft | 24 kts | 247° |
| 2026-05-06 15:24 | -6.11237 | 106.66783 | 45 ft | 26 kts | 248° |
| 2026-05-06 15:24 | -6.11293 | 106.66642 | 44 ft | 18 kts | 248° |
| 2026-05-06 15:24 | -6.11342 | 106.66517 | 45 ft | 21 kts | 248° |
| 2026-05-06 15:25 | -6.11393 | 106.66388 | 45 ft | 8 kts | 248° |
| 2026-05-06 15:25 | -6.11425 | 106.66338 | 44 ft | 8 kts | 209° |
| 2026-05-06 15:25 | -6.11482 | 106.66349 | 44 ft | 8 kts | 160° |
| 2026-05-06 15:25 | -6.11543 | 106.66372 | 44 ft | 11 kts | 159° |
| 2026-05-06 15:26 | -6.11627 | 106.66401 | 44 ft | 14 kts | 171° |
| 2026-05-06 15:26 | -6.11684 | 106.66364 | 44 ft | 10 kts | 245° |
| 2026-05-06 15:26 | -6.11708 | 106.66300 | 44 ft | 10 kts | 248° |
| 2026-05-06 15:26 | -6.11736 | 106.66231 | 44 ft | 6 kts | 248° |
| 2026-05-06 15:27 | -6.11760 | 106.66204 | 44 ft | 4 kts | 194° |
| 2026-05-06 15:27 | -6.11795 | 106.66214 | 44 ft | 7 kts | 162° |
| 2026-05-06 15:27 | -6.11830 | 106.66229 | 44 ft | 0 kts | 158° |
| 2026-05-06 15:28 | -6.11842 | 106.66233 | 44 ft | 0 kts | 158° |
| 2026-05-06 15:28 | -6.11844 | 106.66234 | 44 ft | 0 kts | 158° |